Terminal Aerodrome Forecast
Issued by NWS Jackson, MS

Home | Current Version | Previous Version | Text Only | Print | Product List | Glossary On
Versions: 1 2 3 4 5 6 7 8 9 10 11 12 13 14 15 16 17 18
000
FTUS44 KJAN 251140
TAFHBG
TAF
KHBG 251140Z 2512/2612 14007KT 6SM -SHRA SCT012 BKN040
     FM251500 15011KT P6SM VCTS SCT015 OVC050CB
     FM251800 14011G20KT P6SM VCTS SCT015CB
     FM260700 16005KT P6SM OVC100
     FM260800 17004KT P6SM OVC015
     FM261000 16003KT P6SM OVC007=

USA.gov is the U.S. government's official web portal to all federal, state and local government web resources and services.